Time;durP1;ratioP1;P1;durP2;ratioP2;P2;SDS_P1;SDS_P2;PMS_P1;PMS_P2;Temp;Humidity;BMP_temperature;BMP_pressure;BME280_temperature;BME280_humidity;BME280_pressure;Samples;Min_cycle;Max_cycle;Signal;HPM_P1;HPM_P2
2021/05/05 00:00:37;;;;;;;2.27;1.20;;;14.30;86.20;;;14.73;43.95;99764.19;4876577;28;103812;-57
2021/05/05 00:03:04;;;;;;;1.90;1.30;;;14.20;86.40;;;14.86;43.49;99765.06;4896176;28;97843;-57
2021/05/05 00:05:33;;;;;;;2.60;1.03;;;14.40;84.90;;;15.04;43.51;99758.50;4877793;28;98517;-57
2021/05/05 00:07:59;;;;;;;2.33;1.30;;;14.70;84.10;;;14.85;43.39;99752.75;4895201;28;97738;-53
2021/05/05 00:10:25;;;;;;;2.73;1.17;;;14.60;85.20;;;14.96;43.67;99744.06;4880121;28;98225;-54
2021/05/05 00:12:50;;;;;;;2.27;1.17;;;14.60;84.60;;;14.95;42.50;99742.34;4877454;28;97748;-59
2021/05/05 00:15:24;;;;;;;2.13;1.00;;;14.60;83.60;;;15.23;42.99;99757.25;4891871;28;97816;-56
2021/05/05 00:17:51;;;;;;;3.43;1.30;;;14.90;83.90;;;15.15;42.97;99760.44;4892791;28;99523;-51
2021/05/05 00:20:19;;;;;;;2.30;1.33;;;14.90;82.60;;;15.36;42.72;99760.75;4860460;28;102431;-55
2021/05/05 00:22:45;;;;;;;2.17;0.90;;;15.20;82.20;;;15.40;42.76;99754.28;4881715;28;99409;-53
2021/05/05 00:25:11;;;;;;;2.93;1.27;;;15.20;82.50;;;15.08;42.49;99754.69;4874501;28;97772;-58
2021/05/05 00:27:38;;;;;;;3.87;1.30;;;14.90;82.50;;;15.03;43.40;99754.13;4895184;28;100503;-55
2021/05/05 00:30:09;;;;;;;2.50;1.13;;;14.60;84.60;;;14.77;43.60;99749.78;4881095;28;101058;-59
2021/05/05 00:32:35;;;;;;;1.87;1.03;;;14.40;84.30;;;14.90;42.90;99745.34;4879070;28;99209;-56
2021/05/05 00:35:01;;;;;;;4.10;1.10;;;14.40;84.30;;;14.69;44.01;99752.91;4878752;28;98445;-57
2021/05/05 00:37:26;;;;;;;2.27;1.03;;;14.20;86.00;;;14.85;43.92;99744.78;4893083;28;99066;-57
2021/05/05 00:39:53;;;;;;;2.20;1.00;;;14.30;85.80;;;14.69;44.29;99746.75;4893479;28;105453;-55
2021/05/05 00:42:20;;;;;;;3.37;1.20;;;14.10;86.10;;;14.42;43.91;99747.59;4878530;28;98465;-53
2021/05/05 00:44:46;;;;;;;1.60;0.90;;;13.90;86.40;;;14.58;44.68;99744.81;4861565;28;98862;-56
2021/05/05 00:47:12;;;;;;;3.63;1.20;;;14.00;87.50;;;14.52;44.02;99740.78;4898401;28;98819;-55
2021/05/05 00:49:38;;;;;;;2.13;1.20;;;14.00;86.40;;;14.29;44.31;99744.03;4897806;28;99784;-54
2021/05/05 00:52:04;;;;;;;2.83;1.20;;;13.80;86.50;;;14.30;44.29;99748.41;4914841;28;97643;-54
2021/05/05 00:54:30;;;;;;;2.27;1.13;;;13.80;86.40;;;14.31;43.56;99752.75;4894802;28;97365;-52
2021/05/05 00:56:56;;;;;;;2.77;1.37;;;13.90;85.10;;;14.42;44.67;99739.66;4896784;28;97783;-55
2021/05/05 00:59:23;;;;;;;1.50;1.23;;;13.90;86.60;;;14.63;44.30;99740.06;4898823;28;97633;-55
2021/05/05 01:01:50;;;;;;;2.83;1.03;;;14.20;86.60;;;14.53;44.19;99746.94;4892786;28;97059;-52
2021/05/05 01:04:15;;;;;;;2.23;1.30;;;14.10;85.00;;;14.84;43.89;99753.69;4912689;28;96828;-52
2021/05/05 01:06:41;;;;;;;4.03;1.30;;;14.50;84.20;;;15.01;42.38;99748.09;4908702;28;98456;-52
2021/05/05 01:09:07;;;;;;;1.50;0.97;;;14.80;82.30;;;15.07;42.89;99747.69;4915502;28;98166;-53
2021/05/05 01:11:33;;;;;;;3.60;1.43;;;14.80;83.00;;;15.24;42.94;99743.00;4889075;28;96937;-56
2021/05/05 01:13:59;;;;;;;3.13;1.30;;;15.10;83.10;;;15.27;41.14;99738.34;4882860;28;96756;-57
2021/05/05 01:16:25;;;;;;;4.00;1.30;;;15.10;79.70;;;15.39;40.86;99736.63;4888631;28;97627;-55
2021/05/05 01:18:51;;;;;;;2.77;1.20;;;15.30;79.90;;;15.39;42.60;99729.50;4899243;28;99196;-55
2021/05/05 01:21:19;;;;;;;1.87;1.13;;;15.20;81.30;;;15.17;42.56;99734.59;4891780;28;97436;-57
2021/05/05 01:23:45;;;;;;;2.87;1.53;;;14.80;82.10;;;15.18;42.38;99734.50;4913477;28;97132;-52
2021/05/05 01:26:11;;;;;;;3.53;1.57;;;14.80;81.10;;;15.26;43.03;99730.47;4911919;28;98485;-60
2021/05/05 01:28:43;;;;;;;2.53;1.50;;;14.90;83.10;;;15.39;42.68;99724.19;4910319;28;102838;-53
2021/05/05 01:31:13;;;;;;;5.63;1.57;;;15.10;82.50;;;15.41;40.48;99729.41;4914206;28;97050;-56
2021/05/05 01:33:40;;;;;;;2.13;1.10;;;15.20;78.80;;;15.49;42.24;99724.41;4906423;28;97081;-54
2021/05/05 01:36:10;;;;;;;1.80;1.30;;;15.20;81.20;;;15.36;42.14;99720.91;4894537;28;98561;-55
2021/05/05 01:38:37;;;;;;;4.93;1.67;;;15.00;81.40;;;15.30;42.54;99721.31;4889210;28;103592;-54
2021/05/05 01:41:04;;;;;;;2.70;1.67;;;14.90;82.30;;;15.35;42.72;99722.72;4904336;28;97120;-55
2021/05/05 01:43:31;;;;;;;3.97;1.57;;;15.00;82.10;;;15.37;41.86;99728.78;4894767;28;97482;-56
2021/05/05 01:45:57;;;;;;;3.90;1.03;;;15.00;81.30;;;15.35;42.33;99724.53;4908674;28;97640;-54
2021/05/05 01:48:23;;;;;;;8.23;1.33;;;15.00;81.10;;;15.39;42.21;99704.75;4892337;28;100505;-55
2021/05/05 01:50:49;;;;;;;4.13;1.20;;;15.10;81.70;;;15.59;42.22;99717.50;4898233;28;96926;-56
2021/05/05 01:53:16;;;;;;;3.27;1.47;;;15.30;81.90;;;15.66;41.14;99713.47;4897501;28;100627;-54
2021/05/05 01:55:46;;;;;;;3.43;1.33;;;15.50;79.30;;;15.72;39.71;99713.00;4915781;28;97432;-56
2021/05/05 01:58:12;;;;;;;5.53;1.80;;;15.60;78.70;;;15.64;40.37;99719.84;4894756;28;99070;-56
2021/05/05 02:00:39;;;;;;;4.70;1.53;;;15.50;77.50;;;15.62;41.70;99711.09;4905085;28;97184;-51
2021/05/05 02:03:06;;;;;;;2.03;1.13;;;15.30;79.80;;;15.77;41.14;99726.00;4897031;28;102762;-57
2021/05/05 02:05:32;;;;;;;1.57;1.27;;;15.60;79.50;;;15.82;41.35;99723.84;4898763;28;100417;-56
2021/05/05 02:07:59;;;;;;;5.07;1.80;;;15.70;80.00;;;15.80;40.60;99722.25;4892542;28;97798;-53
2021/05/05 02:10:26;;;;;;;2.90;1.43;;;15.70;78.00;;;15.67;41.38;99727.59;4896854;28;97385;-56
2021/05/05 02:12:52;;;;;;;3.27;1.50;;;15.40;79.10;;;15.66;41.63;99740.03;4913726;28;97242;-56
2021/05/05 02:15:21;;;;;;;6.20;1.70;;;15.40;79.80;;;15.61;41.87;99736.84;4903800;28;97640;-59
2021/05/05 02:17:49;;;;;;;3.40;1.40;;;15.30;80.60;;;15.59;41.78;99730.78;4901734;28;98369;-56
2021/05/05 02:20:19;;;;;;;2.37;1.60;;;15.40;80.60;;;15.59;40.97;99721.94;4885588;28;97347;-56
2021/05/05 02:22:45;;;;;;;4.00;2.07;;;15.50;79.10;;;15.66;41.08;99724.09;4915867;28;97200;-55
2021/05/05 02:25:11;;;;;;;3.23;1.73;;;15.50;79.10;;;15.73;41.05;99720.03;4896986;28;100487;-56
2021/05/05 02:27:38;;;;;;;3.33;2.00;;;15.60;79.70;;;15.87;41.22;99726.16;4911101;28;96915;-56
2021/05/05 02:30:09;;;;;;;5.33;2.03;;;15.80;79.70;;;15.83;41.18;99719.38;4896707;28;97222;-56
2021/05/05 02:32:36;;;;;;;4.77;2.33;;;15.70;78.70;;;15.79;41.71;99728.53;4903871;28;97149;-56
2021/05/05 02:35:04;;;;;;;4.10;1.90;;;15.60;79.20;;;15.83;41.41;99730.00;4896354;28;100078;-56
2021/05/05 02:37:30;;;;;;;7.43;2.57;;;15.60;79.80;;;15.81;41.56;99731.94;4895443;28;101312;-55
2021/05/05 02:39:56;;;;;;;5.00;2.37;;;15.60;79.80;;;15.84;41.63;99737.03;4896066;28;98702;-56
2021/05/05 02:42:22;;;;;;;3.93;2.03;;;15.70;78.50;;;15.80;41.50;99735.56;4909537;28;96963;-56
2021/05/05 02:44:50;;;;;;;5.23;2.20;;;15.50;79.90;;;15.73;41.45;99741.28;4909980;28;98373;-56
2021/05/05 02:47:19;;;;;;;4.23;1.90;;;15.50;79.10;;;15.72;41.55;99731.63;4906542;28;96960;-54
2021/05/05 02:49:45;;;;;;;7.33;2.60;;;15.40;79.80;;;15.72;41.62;99739.59;4897169;28;97068;-56
2021/05/05 02:52:12;;;;;;;4.27;2.30;;;15.40;80.10;;;15.68;40.64;99734.59;4899597;28;97017;-53
2021/05/05 02:54:38;;;;;;;5.33;2.23;;;15.40;78.00;;;15.67;41.14;99733.75;4910411;28;97953;-56
2021/05/05 02:57:05;;;;;;;4.70;2.20;;;15.30;79.20;;;15.71;41.73;99737.88;4893866;28;98312;-56
2021/05/05 02:59:32;;;;;;;5.30;2.40;;;15.40;80.70;;;15.63;41.50;99745.59;4898532;28;97088;-56
2021/05/05 03:01:58;;;;;;;3.77;2.33;;;15.30;79.50;;;15.51;41.03;99746.41;4912890;28;97283;-54
2021/05/05 03:04:26;;;;;;;6.43;2.30;;;15.10;79.70;;;15.54;42.31;99743.53;4911696;28;97352;-55
2021/05/05 03:06:53;;;;;;;5.00;2.50;;;15.10;81.80;;;15.55;42.05;99737.25;4895876;28;103816;-55
2021/05/05 03:09:25;;;;;;;4.33;2.37;;;15.20;80.70;;;15.64;42.08;99741.97;4889746;28;97348;-54
2021/05/05 03:11:56;;;;;;;6.40;2.40;;;15.30;81.60;;;15.75;41.64;99744.69;4892951;28;100459;-54
2021/05/05 03:14:27;;;;;;;4.13;2.27;;;15.60;81.00;;;15.81;41.75;99745.22;4901879;28;99822;-56
2021/05/05 03:16:56;;;;;;;4.23;2.30;;;15.60;79.90;;;15.83;39.77;99740.63;4909582;28;101091;-55
2021/05/05 03:19:22;;;;;;;7.40;2.50;;;15.70;78.00;;;15.81;41.65;99751.38;4920158;28;97341;-55
2021/05/05 03:21:48;;;;;;;6.10;2.43;;;15.60;80.30;;;15.79;40.24;99749.81;4895104;28;98870;-50
2021/05/05 03:24:15;;;;;;;5.13;2.50;;;15.60;78.00;;;15.69;41.37;99750.44;4902820;28;96845;-52
2021/05/05 03:26:41;;;;;;;7.03;2.97;;;15.30;80.00;;;15.63;41.42;99750.91;4889445;28;98567;-54
2021/05/05 03:29:07;;;;;;;4.77;2.40;;;15.20;80.50;;;15.79;41.61;99749.81;4901785;28;97302;-56
2021/05/05 03:31:34;;;;;;;2.53;1.77;;;15.50;81.50;;;15.75;41.87;99752.66;4908138;28;97055;-55
2021/05/05 03:34:02;;;;;;;6.23;2.97;;;15.40;80.10;;;15.70;40.83;99754.81;4921808;28;97974;-53
2021/05/05 03:36:27;;;;;;;4.10;2.70;;;15.40;79.80;;;15.73;41.59;99751.91;4910538;28;97292;-54
2021/05/05 03:38:53;;;;;;;7.53;3.30;;;15.40;80.30;;;15.50;41.58;99750.03;4879494;28;97363;-54
2021/05/05 03:41:19;;;;;;;7.00;3.53;;;15.10;79.30;;;15.53;41.62;99752.47;4898616;28;96924;-54
2021/05/05 03:43:45;;;;;;;7.20;2.97;;;15.00;80.30;;;15.55;42.22;99747.88;4890459;28;101588;-54
2021/05/05 03:46:11;;;;;;;4.87;3.10;;;15.00;82.00;;;15.47;41.89;99750.22;4899740;28;101791;-53
2021/05/05 03:48:37;;;;;;;7.27;3.23;;;15.00;80.70;;;15.34;41.62;99755.56;4892168;28;97325;-56
2021/05/05 03:51:03;;;;;;;7.80;3.30;;;14.80;82.00;;;15.08;41.72;99753.84;4889282;28;97067;-53
2021/05/05 03:53:30;;;;;;;6.73;2.77;;;14.50;82.40;;;15.27;42.82;99753.44;4891573;28;99134;-56
2021/05/05 03:55:56;;;;;;;7.63;2.00;;;14.70;83.70;;;15.27;41.83;99758.72;4891335;28;99862;-56
2021/05/05 03:58:23;;;;;;;3.30;2.00;;;14.90;81.60;;;15.15;42.48;99755.97;4894712;28;97683;-56
2021/05/05 04:00:48;;;;;;;7.70;2.97;;;14.70;82.20;;;14.88;42.02;99752.53;4894636;28;97760;-54
2021/05/05 04:03:14;;;;;;;4.33;3.20;;;14.40;81.60;;;14.81;43.37;99756.56;4895118;28;116739;-56
2021/05/05 04:05:40;;;;;;;3.60;2.20;;;14.10;84.40;;;14.75;42.68;99751.66;4871529;28;99088;-55
2021/05/05 04:08:06;;;;;;;4.53;1.60;;;14.10;84.40;;;14.82;43.83;99758.25;4878201;28;97005;-53
2021/05/05 04:10:33;;;;;;;7.13;3.47;;;14.10;85.40;;;14.93;43.68;99761.06;4894580;28;97177;-51
2021/05/05 04:13:00;;;;;;;6.23;3.13;;;14.40;84.70;;;14.93;43.49;99765.50;4897701;28;97059;-56
2021/05/05 04:15:25;;;;;;;4.00;2.10;;;14.30;85.00;;;14.84;43.40;99761.66;4895812;28;97448;-58
2021/05/05 04:17:51;;;;;;;9.43;4.17;;;14.20;84.00;;;14.73;42.62;99758.88;4892975;28;96799;-53
2021/05/05 04:20:20;;;;;;;9.37;4.17;;;14.20;83.00;;;14.64;43.01;99765.66;4900056;28;96989;-54
2021/05/05 04:22:47;;;;;;;7.17;3.50;;;14.00;84.50;;;14.59;44.11;99768.59;4893377;28;97510;-56
2021/05/05 04:25:15;;;;;;;7.73;4.07;;;13.90;86.80;;;14.74;43.88;99771.19;4892633;28;97432;-53
2021/05/05 04:27:42;;;;;;;6.70;3.47;;;14.10;86.20;;;14.87;43.47;99772.06;4878303;28;96950;-54
2021/05/05 04:30:12;;;;;;;5.23;2.80;;;14.40;85.10;;;14.96;43.34;99776.78;4911816;28;97561;-52
2021/05/05 04:32:39;;;;;;;9.97;4.70;;;14.50;83.70;;;15.13;42.65;99779.13;4884183;28;97692;-57
2021/05/05 04:35:06;;;;;;;7.67;4.47;;;14.80;82.00;;;15.09;42.69;99782.97;4896129;28;98053;-56
2021/05/05 04:37:31;;;;;;;7.33;4.23;;;14.80;81.60;;;15.27;42.62;99787.97;4891045;28;97014;-55
2021/05/05 04:39:57;;;;;;;10.80;3.70;;;15.00;82.80;;;15.29;42.75;99788.69;4893892;28;97152;-56
2021/05/05 04:42:23;;;;;;;9.73;5.33;;;14.90;82.50;;;15.08;42.77;99793.69;4900998;28;97836;-56
2021/05/05 04:44:49;;;;;;;10.97;4.60;;;14.70;82.40;;;15.19;43.26;99788.50;4902519;28;103023;-53
2021/05/05 04:47:15;;;;;;;7.73;4.43;;;14.70;84.20;;;15.28;41.58;99787.84;4897248;28;102409;-56
2021/05/05 04:49:41;;;;;;;9.40;4.60;;;15.00;81.30;;;15.35;42.62;99798.94;4891317;28;102183;-54
2021/05/05 04:52:07;;;;;;;10.03;4.40;;;15.10;83.00;;;15.56;42.43;99797.44;4914878;28;107177;-57
2021/05/05 04:54:32;;;;;;;5.83;4.00;;;15.40;81.90;;;15.56;40.95;99800.09;4890678;28;126466;-54
2021/05/05 04:56:58;;;;;;;10.50;5.07;;;15.50;79.20;;;15.63;42.08;99792.56;4914999;28;97280;-55
2021/05/05 04:59:24;;;;;;;10.13;5.00;;;15.40;80.60;;;15.55;41.95;99806.34;4894423;28;99036;-57
2021/05/05 05:01:50;;;;;;;7.93;4.30;;;15.30;80.40;;;15.62;41.28;99807.69;4890039;28;107390;-56
2021/05/05 05:04:15;;;;;;;6.23;3.13;;;15.40;80.00;;;15.68;40.89;99796.59;4903743;28;111392;-51
2021/05/05 05:06:41;;;;;;;7.63;4.10;;;15.60;79.10;;;15.60;41.58;99809.56;4887671;28;96818;-57
2021/05/05 05:09:07;;;;;;;8.30;3.70;;;15.40;80.60;;;15.38;42.10;99801.38;4917452;28;97701;-56
2021/05/05 05:11:33;;;;;;;8.77;4.30;;;15.10;80.90;;;15.42;42.24;99805.50;4885537;28;102220;-55
2021/05/05 05:13:59;;;;;;;6.80;4.40;;;15.10;81.00;;;15.46;42.21;99813.16;4897523;28;97638;-56
2021/05/05 05:16:25;;;;;;;12.63;5.23;;;15.30;81.40;;;15.53;41.02;99816.25;4889115;28;97272;-60
2021/05/05 05:18:50;;;;;;;11.00;5.27;;;15.40;79.50;;;15.41;42.16;99825.06;4911972;28;97111;-54
2021/05/05 05:21:16;;;;;;;5.13;2.83;;;15.10;80.80;;;15.27;42.08;99825.16;4915692;28;117785;-56
2021/05/05 05:23:43;;;;;;;7.00;4.80;;;15.10;81.00;;;15.37;42.04;99823.59;4897535;28;97213;-53
2021/05/05 05:26:09;;;;;;;8.83;3.40;;;15.00;81.30;;;15.31;42.35;99830.16;4893281;28;97280;-56
2021/05/05 05:28:35;;;;;;;6.77;3.17;;;15.00;81.00;;;15.30;42.78;99830.25;4909300;28;97455;-55
2021/05/05 05:31:00;;;;;;;5.23;2.83;;;14.90;82.10;;;15.37;42.34;99828.91;4880770;28;100379;-53
2021/05/05 05:33:27;;;;;;;9.80;4.60;;;15.10;81.40;;;15.29;42.57;99834.72;4896226;28;106728;-59
2021/05/05 05:35:53;;;;;;;7.50;4.23;;;15.00;81.70;;;15.28;42.89;99837.47;4898325;28;97071;-57
2021/05/05 05:38:19;;;;;;;8.97;4.27;;;15.00;82.60;;;15.24;42.58;99838.66;4898385;28;97432;-56
2021/05/05 05:40:45;;;;;;;7.77;3.73;;;15.00;81.90;;;15.28;42.58;99850.75;4897346;28;98947;-59
2021/05/05 05:43:11;;;;;;;6.60;3.83;;;15.00;82.40;;;15.22;42.46;99835.25;4895438;28;102531;-56
2021/05/05 05:45:37;;;;;;;7.43;4.33;;;15.00;81.50;;;14.93;42.24;99837.19;4892427;28;96739;-58
2021/05/05 05:48:03;;;;;;;7.17;3.90;;;14.70;81.20;;;14.92;43.12;99839.00;4908154;28;97339;-54
2021/05/05 05:50:29;;;;;;;6.10;3.37;;;14.60;82.80;;;14.99;43.54;99839.44;4892996;28;97660;-53
2021/05/05 05:52:55;;;;;;;6.80;4.50;;;14.70;83.20;;;15.03;43.00;99841.78;4895491;28;98837;-53
2021/05/05 05:55:21;;;;;;;5.50;3.27;;;14.90;81.40;;;15.09;42.10;99841.38;4900995;28;99558;-54
2021/05/05 05:57:49;;;;;;;8.67;4.37;;;14.90;81.20;;;15.12;43.08;99846.47;4895698;28;100590;-53
2021/05/05 06:00:17;;;;;;;7.63;4.20;;;14.90;82.90;;;15.18;42.52;99840.75;4893206;28;97818;-53
2021/05/05 06:02:43;;;;;;;10.73;4.60;;;15.00;81.50;;;15.34;42.35;99845.91;4873654;28;97533;-55
2021/05/05 06:05:11;;;;;;;8.80;4.77;;;15.20;81.00;;;14.92;42.66;99844.31;4892988;28;97206;-54
2021/05/05 06:07:37;;;;;;;8.03;5.07;;;14.90;80.60;;;15.01;42.78;99848.16;4894325;28;97429;-55
2021/05/05 06:10:07;;;;;;;7.20;4.23;;;14.80;82.00;;;15.05;42.56;99845.22;4914535;28;97587;-55
2021/05/05 06:12:33;;;;;;;9.90;4.70;;;15.00;81.00;;;15.06;41.82;99851.38;4886964;28;98130;-55
2021/05/05 06:14:59;;;;;;;7.90;3.70;;;15.00;80.50;;;14.86;42.43;99855.31;4913162;28;96997;-56
2021/05/05 06:17:26;;;;;;;8.20;4.57;;;14.60;82.40;;;14.88;43.44;99848.09;4898828;28;97466;-57
2021/05/05 06:19:52;;;;;;;7.83;4.60;;;14.60;83.50;;;15.08;43.03;99854.78;4891499;28;104002;-53
2021/05/05 06:22:18;;;;;;;5.47;2.43;;;14.90;82.70;;;15.13;43.14;99852.66;4923251;28;96854;-54
2021/05/05 06:24:45;;;;;;;10.03;4.40;;;15.00;81.60;;;15.07;42.85;99858.38;4891801;28;97364;-59
2021/05/05 06:27:11;;;;;;;5.90;3.03;;;14.90;81.70;;;15.18;42.73;99846.06;4894885;28;97021;-58
2021/05/05 06:29:37;;;;;;;9.10;3.50;;;15.00;81.50;;;15.30;42.54;99851.50;4872785;28;100557;-58
2021/05/05 06:32:03;;;;;;;7.23;3.77;;;15.20;81.40;;;15.44;42.25;99851.41;4917775;28;97655;-58
2021/05/05 06:34:31;;;;;;;10.63;5.40;;;15.30;81.20;;;15.41;42.07;99862.25;4899185;28;97966;-58
2021/05/05 06:37:03;;;;;;;11.23;4.93;;;15.30;80.30;;;15.16;42.13;99852.44;4911807;28;96981;-51
2021/05/05 06:39:30;;;;;;;13.00;5.23;;;15.00;80.50;;;15.39;42.42;99861.53;4906819;28;97774;-55
2021/05/05 06:41:57;;;;;;;9.90;4.47;;;15.20;81.10;;;15.24;41.84;99865.22;4894590;28;97275;-52
2021/05/05 06:44:23;;;;;;;7.73;3.93;;;15.10;80.70;;;15.42;41.74;99866.63;4904850;28;97690;-54
2021/05/05 06:46:54;;;;;;;4.30;2.80;;;15.30;80.40;;;15.39;42.50;99864.19;4910176;28;97014;-58
2021/05/05 06:49:21;;;;;;;8.30;3.93;;;15.30;81.30;;;15.24;41.54;99859.91;4888738;28;98861;-57
2021/05/05 06:51:46;;;;;;;6.23;3.23;;;15.20;78.70;;;15.38;41.89;99867.78;4892231;28;99364;-56
2021/05/05 06:54:12;;;;;;;9.03;4.67;;;15.30;80.20;;;15.16;41.83;99869.22;4914580;28;97006;-58
2021/05/05 06:56:38;;;;;;;4.90;2.87;;;15.10;79.00;;;15.12;42.59;99873.03;4897316;28;97048;-55
2021/05/05 06:59:04;;;;;;;8.03;4.27;;;14.90;82.00;;;15.16;42.77;99863.91;4898094;28;104991;-55
2021/05/05 07:01:30;;;;;;;7.77;4.07;;;15.10;81.40;;;15.11;40.53;99871.34;4890184;28;97234;-56
2021/05/05 07:03:55;;;;;;;8.17;4.73;;;15.10;78.70;;;15.08;42.83;99866.25;4886244;28;97578;-54
2021/05/05 07:06:21;;;;;;;9.40;4.97;;;15.00;81.30;;;15.12;42.58;99875.69;4904916;28;98482;-55
2021/05/05 07:08:47;;;;;;;6.73;4.03;;;15.00;81.30;;;14.87;43.63;99888.88;4883184;28;100379;-56
2021/05/05 07:11:13;;;;;;;6.50;3.57;;;14.80;83.70;;;14.84;43.88;99889.09;4890550;28;99763;-56
2021/05/05 07:13:39;;;;;;;6.43;3.20;;;14.70;84.00;;;14.85;43.71;99885.50;4910194;28;97427;-56
2021/05/05 07:16:05;;;;;;;5.37;2.67;;;14.70;83.70;;;14.91;43.81;99895.72;4887741;28;96957;-55
2021/05/05 07:18:31;;;;;;;6.37;2.67;;;14.80;83.70;;;14.78;44.18;99894.81;4903503;28;111649;-55
2021/05/05 07:20:58;;;;;;;5.07;2.33;;;14.60;84.30;;;14.87;43.26;99894.19;4894293;28;100264;-55
2021/05/05 07:23:26;;;;;;;4.53;2.40;;;14.80;82.30;;;14.88;43.80;99895.91;4899761;28;97809;-55
2021/05/05 07:25:52;;;;;;;2.20;1.20;;;14.70;83.70;;;15.12;42.89;99899.59;4913617;28;97056;-56
2021/05/05 07:28:18;;;;;;;3.40;1.60;;;15.00;81.90;;;15.08;43.11;99895.47;4900179;28;97179;-56
2021/05/05 07:30:44;;;;;;;2.13;1.30;;;15.00;81.80;;;14.93;43.65;99893.81;4899519;28;97932;-54
2021/05/05 07:33:13;;;;;;;2.30;1.27;;;14.90;82.80;;;15.03;43.11;99894.88;4902325;28;97640;-54
2021/05/05 07:35:39;;;;;;;3.13;2.00;;;14.90;82.30;;;15.09;43.18;99894.50;4889469;28;97198;-51
2021/05/05 07:46:11;;;;;;;5.30;3.10;;;15.00;82.40;;;15.07;43.32;99908.84;4914410;28;98244;-57
2021/05/05 07:51:16;;;;;;;8.73;4.03;;;15.20;81.70;;;15.04;42.51;99923.16;4899709;28;100574;-52
2021/05/05 07:53:42;;;;;;;4.73;3.90;;;15.00;81.00;;;14.79;43.47;99925.72;4889215;28;99271;-54
2021/05/05 07:56:08;;;;;;;5.10;3.60;;;14.80;82.00;;;14.86;43.36;99924.34;4917412;28;97215;-57
2021/05/05 07:58:34;;;;;;;6.63;4.03;;;14.80;82.80;;;14.85;43.92;99925.31;4895995;28;100502;-53
2021/05/05 08:01:00;;;;;;;5.60;2.97;;;14.70;82.90;;;14.87;43.71;99931.38;4912056;28;97933;-55
2021/05/05 08:03:26;;;;;;;5.83;3.70;;;14.80;83.40;;;14.91;43.69;99924.94;4874813;28;103108;-58
2021/05/05 08:05:51;;;;;;;7.37;3.60;;;14.70;83.10;;;14.89;43.57;99930.31;4895911;28;97466;-56
2021/05/05 08:08:17;;;;;;;7.17;3.70;;;14.80;82.50;;;14.86;43.23;99925.22;4896559;28;96850;-53
2021/05/05 08:10:44;;;;;;;2.97;2.67;;;14.90;81.90;;;14.25;45.17;99933.53;4893932;28;97195;-56
2021/05/05 08:13:10;;;;;;;4.70;3.53;;;14.10;86.00;;;14.14;45.47;99959.84;4897222;28;97413;-52
2021/05/05 08:15:36;;;;;;;4.10;2.83;;;14.00;85.70;;;13.03;48.82;99967.28;4891437;28;96918;-53
2021/05/05 08:18:05;;;;;;;3.20;2.53;;;13.00;90.30;;;12.43;50.41;99975.00;4896462;28;97648;-56
2021/05/05 08:20:36;;;;;;;3.50;3.20;;;12.40;91.70;;;12.60;50.27;99980.25;4891780;28;97300;-51
2021/05/05 08:23:10;;;;;;;4.23;2.70;;;12.30;92.80;;;12.52;49.95;99982.44;4900117;28;97077;-52
2021/05/05 08:25:36;;;;;;;6.00;2.83;;;12.30;92.20;;;12.71;49.67;99982.28;4889750;28;96914;-51
2021/05/05 08:28:03;;;;;;;3.60;2.23;;;12.30;92.50;;;12.97;48.85;99984.34;4892877;28;107364;-53
2021/05/05 08:30:29;;;;;;;3.60;2.33;;;12.60;91.80;;;12.94;48.52;99988.97;4890513;28;97725;-56
2021/05/05 08:32:55;;;;;;;4.17;2.73;;;12.90;90.70;;;13.47;47.71;99993.91;4891279;28;102046;-50
2021/05/05 08:35:21;;;;;;;2.30;1.60;;;13.30;90.50;;;13.37;47.63;100006.81;4897473;28;96869;-52
2021/05/05 08:37:49;;;;;;;2.30;1.60;;;13.30;90.20;;;13.65;46.77;100002.56;4894217;28;97204;-54
2021/05/05 08:40:16;;;;;;;2.60;1.47;;;13.60;89.40;;;13.67;46.07;100004.19;4895181;28;98082;-55
2021/05/05 08:42:43;;;;;;;3.00;1.60;;;13.60;87.90;;;13.61;47.26;100003.69;4892862;28;97654;-56
2021/05/05 08:45:31;;;;;;;4.00;2.40;;;13.40;90.10;;;13.60;46.42;100009.94;4895006;28;97043;-56
2021/05/05 08:48:00;;;;;;;2.47;1.80;;;13.40;88.90;;;13.23;47.33;100020.00;4898408;28;102010;-56
2021/05/05 08:50:32;;;;;;;2.37;1.30;;;13.10;90.00;;;12.57;49.11;100016.56;4897905;28;100274;-60
2021/05/05 08:52:59;;;;;;;2.90;1.50;;;12.40;91.00;;;12.51;49.37;100017.78;4913886;28;98111;-55
2021/05/05 08:55:29;;;;;;;1.93;1.10;;;12.30;92.10;;;12.48;48.92;100007.38;4881587;28;98370;-56
2021/05/05 08:57:57;;;;;;;2.30;1.83;;;12.30;91.70;;;12.38;50.15;100019.38;4894087;28;100748;-54
2021/05/05 09:00:36;;;;;;;3.07;2.00;;;12.10;92.90;;;12.82;49.44;100012.53;4888764;28;97706;-54
2021/05/05 09:03:06;;;;;;;2.33;1.40;;;12.50;92.40;;;12.88;47.65;100016.66;4906788;28;97208;-56
2021/05/05 09:05:53;;;;;;;2.50;1.57;;;12.70;90.80;;;13.24;48.11;100020.84;4891848;28;96986;-52
2021/05/05 09:08:21;;;;;;;3.60;1.80;;;13.00;91.20;;;13.43;47.88;100013.53;4914298;28;98096;-54
2021/05/05 09:11:12;;;;;;;3.73;1.83;;;13.30;90.50;;;13.45;46.63;100026.69;4871312;28;98348;-55
2021/05/05 09:13:54;;;;;;;3.77;2.27;;;13.40;90.50;;;13.58;46.18;100022.41;4895373;28;97335;-53
2021/05/05 09:16:31;;;;;;;4.43;2.07;;;13.50;89.00;;;13.78;47.08;100024.75;4891614;28;98878;-55
2021/05/05 09:19:09;;;;;;;4.87;2.20;;;13.60;90.20;;;13.77;46.53;100028.34;4907266;28;102858;-52
2021/05/05 09:21:52;;;;;;;3.80;2.20;;;13.70;87.70;;;13.86;46.43;100022.50;4891750;28;97609;-53
2021/05/05 09:24:28;;;;;;;3.70;2.50;;;13.70;88.70;;;13.78;46.45;100022.13;4920496;28;97071;-53
2021/05/05 09:27:03;;;;;;;6.10;2.10;;;13.60;90.00;;;13.49;45.68;100045.00;4892205;28;97109;-55
2021/05/05 09:29:48;;;;;;;4.83;2.00;;;13.50;88.10;;;13.48;46.92;100031.84;4890876;28;97601;-53
2021/05/05 09:32:18;;;;;;;6.83;2.33;;;13.30;88.30;;;13.14;46.35;100044.28;4877662;28;99690;-56
2021/05/05 09:35:05;;;;;;;5.80;1.87;;;13.10;88.50;;;12.80;48.28;100043.50;4913057;28;97016;-53
2021/05/05 09:37:32;;;;;;;5.83;2.13;;;12.60;90.40;;;13.09;45.65;100038.41;4910610;28;96946;-55
2021/05/05 09:40:11;;;;;;;7.83;2.20;;;13.00;87.60;;;13.31;45.28;100052.19;4884306;28;98401;-55
2021/05/05 09:42:38;;;;;;;7.47;2.60;;;13.30;86.60;;;12.99;44.42;100046.00;4882864;28;100053;-54
2021/05/05 09:45:12;;;;;;;4.77;1.80;;;13.00;85.20;;;13.20;47.23;100048.44;4913946;28;97901;-55
2021/05/05 09:48:00;;;;;;;6.00;2.50;;;13.00;90.20;;;13.57;45.23;100047.19;4890582;28;97007;-54
2021/05/05 09:50:41;;;;;;;5.77;2.73;;;13.40;88.70;;;13.91;45.27;100038.16;4898187;28;103158;-61
2021/05/05 09:53:33;;;;;;;7.50;2.33;;;13.80;85.60;;;13.87;44.14;100045.41;4906378;28;99923;-54
2021/05/05 09:55:59;;;;;;;6.67;2.50;;;13.90;84.70;;;14.20;45.06;100052.31;4887236;28;97440;-52
2021/05/05 09:58:30;;;;;;;4.73;2.40;;;14.10;86.30;;;14.32;44.33;100059.56;4897741;28;97035;-57
2021/05/05 10:01:11;;;;;;;5.03;1.63;;;14.30;84.90;;;14.21;44.60;100059.34;4891585;28;100585;-56
2021/05/05 10:03:40;;;;;;;5.97;2.20;;;14.20;85.00;;;14.40;42.93;100059.94;4893815;28;97331;-55
2021/05/05 10:06:37;;;;;;;4.70;2.40;;;14.50;82.90;;;14.16;42.37;100053.44;4915274;28;97149;-52
2021/05/05 10:09:11;;;;;;;7.47;2.37;;;14.20;82.30;;;14.61;44.08;100064.88;4894796;28;97556;-54
2021/05/05 10:11:41;;;;;;;3.93;1.83;;;14.50;84.40;;;14.76;43.54;100064.81;4895952;28;97275;-54
2021/05/05 10:14:13;;;;;;;4.37;2.40;;;14.70;84.00;;;14.78;41.79;100070.88;4902276;28;97288;-56
2021/05/05 10:16:42;;;;;;;6.00;2.57;;;14.80;81.30;;;14.23;41.18;100083.97;4894302;28;97222;-56
2021/05/05 10:19:26;;;;;;;5.80;2.77;;;14.40;79.60;;;13.40;43.13;100094.06;4909408;28;97028;-52
2021/05/05 10:22:03;;;;;;;3.27;2.27;;;13.30;82.60;;;12.91;42.85;100095.88;4877695;28;104372;-56
2021/05/05 10:24:36;;;;;;;5.13;2.43;;;13.00;81.10;;;13.57;43.39;100105.50;4898084;28;97818;-58
2021/05/05 10:27:02;;;;;;;3.63;2.10;;;13.40;84.90;;;13.56;44.95;100104.63;4881721;28;96974;-55
2021/05/05 10:29:31;;;;;;;6.40;3.00;;;13.40;85.80;;;13.39;42.70;100102.94;4888459;28;97767;-54